Time;durP1;ratioP1;P1;durP2;ratioP2;P2;SDS_P1;SDS_P2;PMS_P1;PMS_P2;Temp;Humidity;BMP_temperature;BMP_pressure;BME280_temperature;BME280_humidity;BME280_pressure;Samples;Min_cycle;Max_cycle;Signal;HPM_P1;HPM_P2
2022/07/26 00:00:33;;;;;;;2.52;1.65;;;;;;;16.69;79.31;99180.77;1762529;81;21261;-80
2022/07/26 00:02:59;;;;;;;1.55;1.30;;;;;;;16.66;79.33;99171.21;1762830;81;21059;-82
2022/07/26 00:05:26;;;;;;;3.72;1.52;;;;;;;16.64;79.51;99170.47;1764485;81;22241;-82
2022/07/26 00:08:09;;;;;;;3.65;1.70;;;;;;;16.61;79.50;99170.66;1767909;81;21945;-80
2022/07/26 00:10:22;;;;;;;2.33;1.57;;;;;;;16.60;79.56;99171.60;1765008;80;20980;-80
2022/07/26 00:12:50;;;;;;;8.00;1.90;;;;;;;16.58;79.23;99166.88;1767681;81;21040;-82
2022/07/26 00:15:18;;;;;;;5.33;1.52;;;;;;;16.57;78.97;99165.16;1767943;81;21048;-81
2022/07/26 00:17:44;;;;;;;2.08;1.45;;;;;;;16.54;78.68;99170.66;1767831;81;21201;-82
2022/07/26 00:20:11;;;;;;;7.15;1.62;;;;;;;16.49;78.74;99171.44;1767810;81;21122;-82
2022/07/26 00:22:38;;;;;;;2.22;1.60;;;;;;;16.44;78.72;99165.57;1764632;81;21048;-81
2022/07/26 00:25:07;;;;;;;2.95;2.08;;;;;;;16.38;78.73;99162.00;1723928;82;21204;-81
2022/07/26 00:27:37;;;;;;;2.67;1.40;;;;;;;16.31;78.97;99158.41;1722980;82;21018;-80
2022/07/26 00:30:06;;;;;;;2.92;1.52;;;;;;;16.31;79.03;99163.72;1722493;82;21149;-82
2022/07/26 00:32:33;;;;;;;2.27;1.60;;;;;;;16.27;79.29;99159.56;1722809;83;21131;-79
2022/07/26 00:35:00;;;;;;;2.75;1.67;;;;;;;16.25;79.38;99168.08;1722838;83;21080;-80
2022/07/26 00:37:26;;;;;;;3.40;1.70;;;;;;;16.22;79.59;99167.42;1723069;82;21124;-81
2022/07/26 00:39:53;;;;;;;2.95;1.85;;;;;;;16.20;79.56;99162.21;1722660;83;21021;-82
2022/07/26 00:42:19;;;;;;;1.50;1.40;;;;;;;16.19;79.59;99167.16;1722948;83;21598;-81
2022/07/26 00:44:46;;;;;;;2.02;1.62;;;;;;;16.16;79.45;99165.54;1722877;82;21653;-81
2022/07/26 00:47:13;;;;;;;2.15;1.90;;;;;;;16.12;79.51;99168.48;1722724;83;21080;-82
2022/07/26 00:49:40;;;;;;;2.00;1.90;;;;;;;16.08;79.75;99163.00;1723151;82;21131;-79
2022/07/26 00:52:08;;;;;;;1.50;1.40;;;;;;;16.06;80.36;99163.58;1722801;83;21058;-79
2022/07/26 00:54:35;;;;;;;5.70;1.90;;;;;;;16.05;80.56;99161.86;1722913;83;21005;-80
2022/07/26 00:57:02;;;;;;;2.55;2.02;;;;;;;16.04;80.60;99154.38;1723410;82;21179;-81
2022/07/26 00:59:30;;;;;;;1.70;1.60;;;;;;;15.99;80.82;99149.84;1723188;82;21115;-82
2022/07/26 01:01:56;;;;;;;2.05;1.85;;;;;;;15.96;81.30;99146.05;1722585;82;21057;-82
2022/07/26 01:04:23;;;;;;;3.72;1.92;;;;;;;15.94;81.55;99147.47;1723317;82;21682;-80
2022/07/26 01:06:50;;;;;;;1.72;1.62;;;;;;;15.91;81.55;99143.67;1720844;82;21042;-81
2022/07/26 01:09:16;;;;;;;1.80;1.70;;;;;;;15.88;81.46;99145.19;1697501;84;21066;-81
2022/07/26 01:11:45;;;;;;;1.77;1.52;;;;;;;15.85;81.46;99141.39;1727480;82;21651;-81
2022/07/26 01:14:11;;;;;;;4.72;1.50;;;;;;;15.81;81.30;99145.69;1696720;84;22027;-81
2022/07/26 01:16:38;;;;;;;1.77;1.67;;;;;;;15.79;80.97;99143.12;1697699;84;21118;-80
2022/07/26 01:19:04;;;;;;;1.65;1.55;;;;;;;15.75;80.92;99145.53;1698004;84;20987;-80
2022/07/26 01:21:32;;;;;;;2.77;1.60;;;;;;;15.69;81.04;99147.27;1696559;84;21071;-80
2022/07/26 01:23:59;;;;;;;1.90;1.50;;;;;;;15.66;81.20;99146.13;1696947;84;21089;-80
2022/07/26 01:26:25;;;;;;;1.92;1.60;;;;;;;15.64;81.25;99144.05;1697736;84;21557;-80
2022/07/26 01:28:53;;;;;;;2.37;1.50;;;;;;;15.63;81.25;99154.27;1697837;84;21101;-82
2022/07/26 01:31:20;;;;;;;1.87;1.57;;;;;;;15.60;81.30;99153.51;1698195;84;21034;-80
2022/07/26 01:33:46;;;;;;;6.30;1.90;;;;;;;15.60;81.08;99152.63;1698253;84;20956;-79
2022/07/26 01:36:14;;;;;;;4.45;1.80;;;;;;;15.55;80.64;99154.27;1696916;84;21047;-82
2022/07/26 01:38:41;;;;;;;1.55;1.45;;;;;;;15.51;80.55;99153.20;1698065;84;21287;-80
2022/07/26 01:41:07;;;;;;;4.17;1.60;;;;;;;15.47;80.56;99155.68;1696959;83;21106;-83
2022/07/26 01:43:36;;;;;;;2.58;1.90;;;;;;;15.43;80.66;99149.69;1647909;86;21137;-80
2022/07/26 01:46:04;;;;;;;5.50;1.75;;;;;;;15.41;80.85;99144.47;1648469;86;21129;-80
2022/07/26 01:48:30;;;;;;;1.65;1.50;;;;;;;15.38;81.23;99152.64;1697933;84;21047;-80
2022/07/26 01:50:57;;;;;;;5.47;2.12;;;;;;;15.37;81.26;99155.37;1698182;84;21581;-82
2022/07/26 01:53:24;;;;;;;3.42;1.90;;;;;;;15.36;81.16;99154.98;1697579;84;21130;-82
2022/07/26 01:55:50;;;;;;;4.70;1.95;;;;;;;15.33;81.45;99153.39;1698424;84;21086;-81
2022/07/26 01:58:17;;;;;;;2.15;1.95;;;;;;;15.29;81.77;99146.55;1697976;84;21035;-81
2022/07/26 02:00:44;;;;;;;1.70;1.60;;;;;;;15.27;82.13;99143.14;1695649;84;21381;-79
2022/07/26 02:03:10;;;;;;;5.83;2.10;;;;;;;15.29;82.29;99145.22;1698219;84;21212;-80
2022/07/26 02:05:37;;;;;;;2.00;1.50;;;;;;;15.27;82.10;99142.30;1700744;83;20971;-83
2022/07/26 02:08:03;;;;;;;5.25;2.15;;;;;;;15.27;81.82;99143.14;1715428;83;21590;-82
2022/07/26 02:13:15;;;;;;;2.42;1.90;;;;;;;15.20;81.32;99143.14;1708054;83;21057;-82
2022/07/26 02:15:42;;;;;;;3.05;1.85;;;;;;;15.19;81.27;99138.77;1714587;82;21509;-82
2022/07/26 02:18:08;;;;;;;6.12;2.05;;;;;;;15.15;81.18;99146.05;1715804;83;21053;-82
2022/07/26 02:20:35;;;;;;;3.65;2.40;;;;;;;15.10;81.16;99148.61;1715559;83;21516;-81
2022/07/26 02:23:02;;;;;;;5.50;2.42;;;;;;;15.05;81.31;99143.58;1715670;83;21511;-81
2022/07/26 02:25:29;;;;;;;13.72;3.05;;;;;;;15.01;81.50;99141.58;1715432;83;21568;-80
2022/07/26 02:27:55;;;;;;;2.22;2.10;;;;;;;15.00;81.49;99142.99;1715724;83;21603;-83
2022/07/26 02:30:22;;;;;;;2.62;2.42;;;;;;;14.98;81.52;99139.59;1715630;83;21116;-81
2022/07/26 02:32:49;;;;;;;3.10;2.80;;;;;;;14.96;81.61;99150.72;1715676;83;21076;-82
2022/07/26 02:35:16;;;;;;;2.60;2.40;;;;;;;14.93;81.83;99146.92;1715640;83;21072;-80
2022/07/26 02:37:43;;;;;;;3.75;2.45;;;;;;;14.93;81.99;99150.89;1715449;83;21045;-81
2022/07/26 02:40:11;;;;;;;3.52;2.25;;;;;;;14.94;82.10;99155.27;1715834;83;21115;-82
2022/07/26 02:42:37;;;;;;;6.47;2.72;;;;;;;14.93;82.15;99149.57;1715770;83;21077;-82
2022/07/26 02:45:04;;;;;;;3.72;2.35;;;;;;;14.91;82.08;99148.36;1715691;83;21104;-81
2022/07/26 02:47:31;;;;;;;6.62;2.75;;;;;;;14.90;82.37;99148.45;1715643;83;21591;-83
2022/07/26 02:49:58;;;;;;;2.42;2.25;;;;;;;14.91;82.64;99149.69;1715601;83;22030;-80
2022/07/26 02:52:24;;;;;;;2.62;2.50;;;;;;;14.91;82.81;99146.16;1715421;83;21118;-80
2022/07/26 02:54:51;;;;;;;5.90;2.80;;;;;;;14.92;82.87;99149.20;1715721;83;21054;-81
2022/07/26 02:57:18;;;;;;;3.30;2.90;;;;;;;14.92;82.82;99148.73;1715657;83;21069;-82
2022/07/26 02:59:44;;;;;;;2.83;2.62;;;;;;;14.93;82.86;99145.59;1715627;83;21113;-82
2022/07/26 03:02:10;;;;;;;6.03;2.67;;;;;;;14.94;82.88;99149.48;1700420;84;21155;-81
2022/07/26 03:04:37;;;;;;;3.55;3.10;;;;;;;14.97;83.14;99157.73;1715475;83;21554;-81
2022/07/26 03:07:03;;;;;;;4.50;3.10;;;;;;;14.96;83.27;99149.39;1714692;83;21006;-80
2022/07/26 03:09:30;;;;;;;4.92;2.92;;;;;;;14.97;83.65;99153.77;1715008;83;21049;-80
2022/07/26 03:11:56;;;;;;;8.68;3.35;;;;;;;15.02;84.36;99147.24;1715816;82;22277;-82
2022/07/26 03:14:23;;;;;;;6.55;3.27;;;;;;;15.07;84.99;99146.98;1737592;80;21038;-81
2022/07/26 03:16:50;;;;;;;4.70;3.17;;;;;;;15.09;85.29;99143.76;1736928;82;21082;-80
2022/07/26 03:19:17;;;;;;;3.92;2.70;;;;;;;15.13;85.51;99142.65;1737387;82;21071;-81
2022/07/26 03:21:43;;;;;;;3.60;2.85;;;;;;;15.17;85.43;99142.84;1736987;82;21035;-81
2022/07/26 03:24:09;;;;;;;7.80;2.80;;;;;;;15.24;85.21;99142.00;1736842;82;21030;-80
2022/07/26 03:26:36;;;;;;;5.78;3.08;;;;;;;15.29;85.12;99147.03;1736919;82;21085;-80
2022/07/26 03:29:02;;;;;;;6.75;3.20;;;;;;;15.34;85.27;99143.14;1737096;82;21297;-82
2022/07/26 03:31:29;;;;;;;6.72;2.87;;;;;;;15.39;85.14;99145.53;1737023;82;21105;-81
2022/07/26 03:33:56;;;;;;;4.03;2.58;;;;;;;15.47;85.02;99143.27;1736377;82;21038;-80
2022/07/26 03:36:22;;;;;;;6.53;2.72;;;;;;;15.54;84.59;99137.96;1736253;82;20983;-79
2022/07/26 03:38:49;;;;;;;3.35;2.83;;;;;;;15.62;84.43;99148.11;1737251;82;21479;-79
2022/07/26 03:41:15;;;;;;;3.72;3.22;;;;;;;15.68;84.33;99138.91;1736374;82;22326;-80
2022/07/26 03:43:41;;;;;;;3.30;3.00;;;;;;;15.73;85.00;99136.83;1737000;82;21098;-81
2022/07/26 03:46:08;;;;;;;4.17;3.00;;;;;;;15.79;85.40;99135.16;1736698;82;21165;-81
2022/07/26 03:48:34;;;;;;;3.40;3.02;;;;;;;15.85;85.55;99142.72;1736405;82;21118;-81
2022/07/26 03:51:01;;;;;;;3.00;2.60;;;;;;;15.88;85.75;99133.73;1736396;82;21098;-82
2022/07/26 03:53:29;;;;;;;5.58;2.70;;;;;;;15.90;85.51;99138.02;1737154;82;21085;-80
2022/07/26 03:58:40;;;;;;;3.75;3.05;;;;;;;16.00;86.04;99142.72;1735452;82;21015;-81
2022/07/26 04:01:07;;;;;;;5.78;3.50;;;;;;;16.04;86.06;99141.56;1736572;82;21556;-81
2022/07/26 04:03:33;;;;;;;5.92;3.87;;;;;;;16.07;86.22;99146.23;1736930;82;20980;-80
2022/07/26 04:05:59;;;;;;;4.05;3.37;;;;;;;16.11;86.48;99145.56;1733816;82;21494;-80
2022/07/26 04:08:26;;;;;;;5.17;3.40;;;;;;;16.16;86.52;99148.77;1708595;83;21146;-80
2022/07/26 04:10:53;;;;;;;2.98;2.67;;;;;;;16.22;86.45;99152.83;1709112;83;21082;-80
2022/07/26 04:13:19;;;;;;;2.90;2.67;;;;;;;16.26;86.48;99155.19;1709167;83;21136;-80
2022/07/26 04:15:46;;;;;;;5.00;3.10;;;;;;;16.33;86.42;99153.84;1709058;82;21130;-81
2022/07/26 04:18:13;;;;;;;8.53;3.05;;;;;;;16.41;85.94;99156.47;1709034;83;21116;-81
2022/07/26 04:20:39;;;;;;;4.83;3.00;;;;;;;16.47;85.68;99158.25;1709170;82;21078;-82
2022/07/26 04:23:06;;;;;;;4.58;2.90;;;;;;;16.52;85.48;99155.31;1709035;83;21138;-78
2022/07/26 04:25:33;;;;;;;7.12;2.90;;;;;;;16.58;85.47;99160.23;1701237;83;21070;-80
2022/07/26 04:28:01;;;;;;;3.30;2.58;;;;;;;16.64;85.38;99159.84;1699086;83;21037;-81
2022/07/26 04:30:28;;;;;;;4.50;3.15;;;;;;;16.72;85.16;99154.85;1699948;83;21114;-79
2022/07/26 04:32:54;;;;;;;7.10;3.40;;;;;;;16.79;85.09;99155.78;1699692;83;21078;-83
2022/07/26 04:35:21;;;;;;;4.33;3.12;;;;;;;16.86;84.86;99162.42;1671593;85;21133;-83
2022/07/26 04:37:47;;;;;;;4.65;3.35;;;;;;;16.94;84.62;99157.45;1699246;83;21214;-83
2022/07/26 04:40:19;;;;;;;4.40;3.02;;;;;;;17.06;84.22;99159.77;1698843;83;21039;-84
2022/07/26 04:42:45;;;;;;;4.60;3.02;;;;;;;17.17;83.81;99161.72;1698925;83;21149;-82
2022/07/26 04:45:12;;;;;;;9.25;3.80;;;;;;;17.26;83.44;99166.39;1699167;83;21074;-83
2022/07/26 04:47:46;;;;;;;4.53;3.22;;;;;;;17.37;83.31;99169.67;1697391;83;21082;-82
2022/07/26 04:50:12;;;;;;;11.55;6.05;;;;;;;17.44;83.32;99169.13;1699516;83;21098;-82
2022/07/26 04:52:39;;;;;;;26.90;14.90;;;;;;;17.55;82.54;99168.86;1699209;83;21090;-84
2022/07/26 04:55:06;;;;;;;21.62;11.00;;;;;;;17.61;82.42;99171.95;1699741;83;21124;-83
2022/07/26 04:57:33;;;;;;;18.82;6.28;;;;;;;17.68;82.48;99169.72;1699687;83;21505;-83
2022/07/26 04:59:59;;;;;;;12.78;5.70;;;;;;;17.75;81.90;99171.02;1672316;85;21027;-84
2022/07/26 05:02:26;;;;;;;8.60;5.37;;;;;;;17.81;81.57;99169.23;1671909;85;21160;-83
2022/07/26 05:04:52;;;;;;;8.35;5.33;;;;;;;17.87;81.40;99170.67;1672181;85;21007;-83
2022/07/26 05:07:19;;;;;;;5.53;3.87;;;;;;;17.93;81.64;99166.22;1672640;84;21819;-83
2022/07/26 05:09:45;;;;;;;10.88;3.60;;;;;;;18.00;81.28;99174.17;1709828;82;21001;-83
2022/07/26 05:12:11;;;;;;;7.53;3.37;;;;;;;18.08;81.05;99176.27;1725719;82;21060;-82
2022/07/26 05:14:38;;;;;;;8.35;3.45;;;;;;;18.14;80.64;99170.52;1726310;82;21112;-84
2022/07/26 05:17:05;;;;;;;5.33;3.12;;;;;;;18.21;80.51;99166.94;1726119;83;21134;-84
2022/07/26 05:19:32;;;;;;;6.08;3.45;;;;;;;18.29;80.16;99173.02;1726189;82;21115;-83
2022/07/26 05:21:58;;;;;;;5.35;3.45;;;;;;;18.35;79.25;99178.75;1726217;82;21060;-83
2022/07/26 05:24:25;;;;;;;5.30;3.15;;;;;;;18.40;79.56;99179.77;1725953;82;21000;-81
2022/07/26 05:26:51;;;;;;;7.47;3.00;;;;;;;18.49;79.86;99179.11;1726515;82;21554;-83
2022/07/26 05:29:18;;;;;;;9.25;3.58;;;;;;;18.59;79.98;99173.09;1725916;83;21665;-83
2022/07/26 05:31:45;;;;;;;7.00;3.42;;;;;;;18.71;79.78;99177.51;1726237;82;21334;-83
2022/07/26 05:34:12;;;;;;;5.47;3.20;;;;;;;18.80;79.48;99175.52;1726239;83;21093;-85
2022/07/26 05:36:39;;;;;;;4.65;3.00;;;;;;;18.88;78.69;99171.83;1726045;82;21012;-83
2022/07/26 05:39:05;;;;;;;6.12;3.33;;;;;;;18.94;78.03;99175.35;1726323;83;20966;-81
2022/07/26 05:41:32;;;;;;;4.03;2.85;;;;;;;19.03;78.41;99175.63;1726281;82;21056;-80
2022/07/26 05:43:58;;;;;;;5.35;3.20;;;;;;;19.12;78.09;99171.79;1726539;82;21702;-81
2022/07/26 05:46:25;;;;;;;7.92;3.12;;;;;;;19.22;77.86;99164.44;1726292;82;21044;-82
2022/07/26 05:48:51;;;;;;;5.67;3.05;;;;;;;19.29;77.59;99162.50;1726384;82;21116;-82
2022/07/26 05:51:18;;;;;;;3.40;3.00;;;;;;;19.38;77.40;99168.95;1726102;83;21001;-82
2022/07/26 05:53:44;;;;;;;2.85;2.40;;;;;;;19.49;76.83;99164.14;1726119;82;21476;-81
2022/07/26 05:56:10;;;;;;;12.93;2.98;;;;;;;19.56;75.96;99167.19;1725939;82;21598;-76
2022/07/26 05:58:37;;;;;;;6.25;3.05;;;;;;;19.62;76.16;99163.55;1725912;83;20997;-81
2022/07/26 06:01:04;;;;;;;5.65;3.12;;;;;;;19.71;74.84;99167.81;1726439;82;21108;-81
2022/07/26 06:03:31;;;;;;;7.28;2.67;;;;;;;19.73;73.79;99165.38;1725802;83;21092;-82
2022/07/26 06:05:57;;;;;;;5.00;2.80;;;;;;;19.78;74.18;99163.72;1725864;83;21088;-82
2022/07/26 06:08:25;;;;;;;5.47;3.47;;;;;;;19.84;74.50;99162.75;1753618;80;21100;-82
2022/07/26 06:10:51;;;;;;;4.65;3.20;;;;;;;19.91;74.14;99160.45;1762774;81;21088;-82
2022/07/26 06:13:18;;;;;;;4.40;2.58;;;;;;;19.98;73.87;99161.65;1762598;81;21009;-80
2022/07/26 06:15:45;;;;;;;5.55;2.50;;;;;;;20.06;73.69;99164.22;1762517;81;21056;-81
2022/07/26 06:18:12;;;;;;;4.15;1.82;;;;;;;20.18;73.85;99163.23;1762545;81;21079;-82
2022/07/26 06:20:40;;;;;;;4.72;1.80;;;;;;;20.28;72.60;99157.50;1762247;81;21854;-82
2022/07/26 06:23:06;;;;;;;3.15;2.10;;;;;;;20.36;72.34;99156.90;1762408;81;21075;-82
2022/07/26 06:25:32;;;;;;;4.03;2.25;;;;;;;20.43;72.17;99150.08;1762837;81;21491;-83
2022/07/26 06:28:02;;;;;;;5.65;2.45;;;;;;;20.51;71.88;99148.09;1756375;81;21014;-81
2022/07/26 06:30:29;;;;;;;5.28;2.30;;;;;;;20.58;71.59;99148.81;1725703;82;21141;-83
2022/07/26 06:32:56;;;;;;;3.30;2.30;;;;;;;20.67;71.48;99145.89;1726263;83;21107;-81
2022/07/26 06:35:23;;;;;;;4.20;2.40;;;;;;;20.76;71.45;99143.81;1725757;83;21024;-84
2022/07/26 06:37:49;;;;;;;4.65;2.15;;;;;;;20.84;70.70;99143.16;1725890;83;21049;-83
2022/07/26 06:40:16;;;;;;;3.25;2.47;;;;;;;20.94;71.29;99138.73;1726064;82;21013;-83
2022/07/26 06:42:42;;;;;;;3.98;2.17;;;;;;;21.04;69.89;99136.14;1725708;83;21059;-84
2022/07/26 06:45:10;;;;;;;2.60;2.30;;;;;;;21.13;69.69;99132.70;1725877;82;21772;-82
2022/07/26 06:47:36;;;;;;;3.65;1.92;;;;;;;21.21;68.57;99132.53;1725690;83;21128;-84
2022/07/26 06:50:04;;;;;;;4.45;2.35;;;;;;;21.24;68.76;99126.92;1726110;82;21475;-83
2022/07/26 06:52:31;;;;;;;4.95;2.42;;;;;;;21.32;69.62;99123.11;1725694;83;21067;-82
2022/07/26 06:54:59;;;;;;;4.40;2.30;;;;;;;21.41;68.42;99129.00;1726073;82;21072;-83
2022/07/26 06:57:26;;;;;;;6.03;2.50;;;;;;;21.52;69.17;99129.45;1725864;83;21137;-82
2022/07/26 06:59:52;;;;;;;3.30;2.27;;;;;;;21.63;68.00;99129.86;1725978;83;21144;-83
2022/07/26 07:02:19;;;;;;;2.90;1.90;;;;;;;21.70;67.44;99121.64;1725878;83;21127;-81
2022/07/26 07:04:46;;;;;;;5.53;2.17;;;;;;;21.75;65.59;99123.42;1725900;82;21037;-81
2022/07/26 07:07:12;;;;;;;3.65;1.90;;;;;;;21.70;65.39;99124.31;1725879;82;21116;-82
2022/07/26 07:09:38;;;;;;;4.67;1.80;;;;;;;21.61;64.42;99117.10;1725685;82;22179;-81
2022/07/26 07:12:06;;;;;;;4.30;2.10;;;;;;;21.54;65.06;99126.66;1725535;83;21550;-81
2022/07/26 07:14:33;;;;;;;3.98;1.80;;;;;;;21.50;65.47;99121.56;1720347;82;21147;-80
2022/07/26 07:16:59;;;;;;;6.08;1.92;;;;;;;21.51;66.09;99116.55;1672543;85;21164;-83
2022/07/26 07:19:26;;;;;;;3.72;2.60;;;;;;;21.54;65.61;99117.28;1672105;85;21126;-81
2022/07/26 07:21:55;;;;;;;5.25;2.40;;;;;;;21.57;65.18;99118.33;1671185;85;48455;-81
2022/07/26 07:24:23;;;;;;;4.15;2.20;;;;;;;21.57;64.88;99118.33;1672134;85;21659;-81
2022/07/26 07:26:50;;;;;;;4.08;2.65;;;;;;;21.62;65.43;99106.73;1672247;85;21030;-83
2022/07/26 07:29:19;;;;;;;5.33;2.87;;;;;;;21.69;64.55;99111.93;1673217;85;21094;-81
2022/07/26 07:31:46;;;;;;;4.20;2.40;;;;;;;21.77;65.24;99117.47;1672961;84;21112;-82
2022/07/26 07:34:14;;;;;;;3.30;2.35;;;;;;;21.87;65.26;99102.28;1671918;85;21897;-81
2022/07/26 07:36:40;;;;;;;6.08;2.75;;;;;;;21.98;64.27;99105.83;1669914;85;21116;-84
2022/07/26 07:39:07;;;;;;;3.92;2.60;;;;;;;22.10;64.49;99103.89;1672687;85;21615;-82
2022/07/26 07:41:35;;;;;;;5.10;2.50;;;;;;;22.14;63.69;99103.49;1671232;85;21184;-83
2022/07/26 07:44:01;;;;;;;4.72;2.90;;;;;;;22.21;63.50;99104.63;1672635;85;21136;-79
2022/07/26 07:46:28;;;;;;;4.47;2.90;;;;;;;22.29;62.73;99109.81;1672184;85;21533;-81
2022/07/26 07:48:58;;;;;;;6.08;2.80;;;;;;;22.31;62.87;99106.50;1672726;85;21077;-79
2022/07/26 07:51:26;;;;;;;8.95;2.25;;;;;;;22.24;61.77;99104.36;1672945;85;21188;-83
2022/07/26 07:53:53;;;;;;;2.85;2.12;;;;;;;22.15;61.85;99118.56;1672324;85;21105;-81
2022/07/26 07:56:20;;;;;;;2.27;2.05;;;;;;;22.13;62.97;99117.86;1672447;85;21133;-81
2022/07/26 07:58:46;;;;;;;4.10;2.17;;;;;;;22.18;61.97;99116.12;1668923;84;21174;-83
2022/07/26 08:01:12;;;;;;;2.45;1.75;;;;;;;22.26;63.10;99114.44;1671804;85;21152;-82
2022/07/26 08:03:39;;;;;;;5.55;2.08;;;;;;;22.45;62.05;99120.86;1672844;85;21562;-82
2022/07/26 08:06:08;;;;;;;2.55;1.67;;;;;;;22.61;60.30;99118.48;1671510;85;21077;-83
2022/07/26 08:08:35;;;;;;;5.42;1.82;;;;;;;22.77;60.84;99121.09;1677069;84;21649;-84
2022/07/26 08:11:04;;;;;;;5.90;1.75;;;;;;;22.86;60.63;99124.26;1680361;85;22339;-83
2022/07/26 08:13:32;;;;;;;3.58;1.80;;;;;;;22.90;59.48;99128.37;1680137;84;21455;-82
2022/07/26 08:15:58;;;;;;;9.38;2.05;;;;;;;22.94;59.95;99120.38;1680457;84;21035;-81
2022/07/26 08:18:25;;;;;;;2.37;1.67;;;;;;;23.02;60.04;99124.20;1680292;84;21154;-84
2022/07/26 08:20:52;;;;;;;2.92;1.60;;;;;;;23.07;59.22;99120.62;1680732;84;21106;-83
2022/07/26 08:23:21;;;;;;;3.37;2.12;;;;;;;23.15;59.63;99114.06;1705945;83;22129;-82
2022/07/26 08:25:48;;;;;;;3.02;1.95;;;;;;;23.25;58.25;99115.36;1707349;84;20979;-81
2022/07/26 08:28:15;;;;;;;3.47;1.85;;;;;;;23.39;59.09;99106.03;1707247;83;21089;-81
2022/07/26 08:30:42;;;;;;;3.60;1.70;;;;;;;23.58;59.42;99097.89;1706684;83;21077;-83
2022/07/26 08:33:08;;;;;;;2.95;1.62;;;;;;;23.78;58.25;99108.58;1707405;84;21156;-82
2022/07/26 08:35:36;;;;;;;2.60;2.08;;;;;;;23.84;57.75;99108.86;1707008;83;21141;-83
2022/07/26 08:38:02;;;;;;;2.00;1.52;;;;;;;23.89;56.88;99106.58;1707266;84;21092;-81
2022/07/26 08:40:29;;;;;;;2.15;1.60;;;;;;;23.93;57.02;99113.84;1706932;83;21006;-81
2022/07/26 08:42:56;;;;;;;3.10;1.67;;;;;;;23.98;57.41;99104.00;1707129;83;20990;-82
2022/07/26 08:45:25;;;;;;;3.27;2.27;;;;;;;24.01;57.07;99107.23;1706872;83;21087;-84
2022/07/26 08:47:52;;;;;;;2.20;2.00;;;;;;;24.09;57.05;99109.15;1707802;83;21229;-84
2022/07/26 08:50:19;;;;;;;4.75;1.80;;;;;;;24.20;57.51;99106.77;1707444;84;21031;-84
2022/07/26 08:52:46;;;;;;;2.70;2.12;;;;;;;24.34;57.17;99103.55;1707074;84;21571;-83
2022/07/26 08:55:18;;;;;;;2.42;1.90;;;;;;;24.51;56.45;99108.63;1707077;84;21524;-83
2022/07/26 08:57:48;;;;;;;4.58;1.75;;;;;;;24.67;56.62;99102.58;1707433;84;20995;-84
2022/07/26 09:00:32;;;;;;;3.12;2.22;;;;;;;24.83;56.89;99101.39;1707335;83;21573;-84
2022/07/26 09:02:58;;;;;;;4.45;2.00;;;;;;;24.97;55.36;99101.84;1706292;83;21077;-84
2022/07/26 09:05:36;;;;;;;3.12;1.82;;;;;;;25.07;53.74;99099.91;1707276;83;21096;-82
2022/07/26 09:08:25;;;;;;;4.47;1.80;;;;;;;25.09;54.09;99097.89;1710859;83;21006;-81
2022/07/26 09:10:54;;;;;;;2.67;1.70;;;;;;;25.16;54.01;99092.22;1725570;83;21013;-81
2022/07/26 09:13:22;;;;;;;2.12;1.60;;;;;;;25.25;52.70;99098.53;1709156;83;22676;-79
2022/07/26 09:16:12;;;;;;;4.53;1.35;;;;;;;25.30;52.71;99100.28;1698374;84;21667;-82
2022/07/26 09:18:40;;;;;;;3.33;1.37;;;;;;;25.39;53.15;99086.36;1697239;84;21106;-82
2022/07/26 09:21:11;;;;;;;3.35;1.57;;;;;;;25.48;51.41;99083.20;1703415;83;21058;-83
2022/07/26 09:23:40;;;;;;;1.42;1.22;;;;;;;25.49;51.06;99080.87;1688786;83;20989;-79
2022/07/26 09:26:08;;;;;;;3.02;1.60;;;;;;;25.52;51.09;99069.27;1725783;82;22196;-82
2022/07/26 09:28:36;;;;;;;2.90;1.45;;;;;;;25.61;50.65;99067.97;1725093;83;21088;-82
2022/07/26 09:31:04;;;;;;;2.98;1.40;;;;;;;25.71;50.79;99065.48;1725615;83;21076;-81
2022/07/26 09:33:46;;;;;;;3.05;1.30;;;;;;;25.82;50.67;99073.77;1725467;83;20997;-80
2022/07/26 09:36:12;;;;;;;4.15;1.25;;;;;;;25.94;49.82;99067.09;1725324;83;21124;-79
2022/07/26 09:38:48;;;;;;;1.92;1.07;;;;;;;26.08;48.56;99064.81;1725368;83;21101;-82
2022/07/26 09:41:22;;;;;;;1.92;1.20;;;;;;;26.22;48.86;99059.28;1724922;83;20994;-79
2022/07/26 09:43:49;;;;;;;3.67;1.30;;;;;;;26.33;48.73;99065.20;1725786;83;21065;-79
2022/07/26 09:46:16;;;;;;;3.20;1.30;;;;;;;26.43;48.36;99062.36;1725649;82;21511;-79
2022/07/26 09:48:43;;;;;;;1.10;1.00;;;;;;;26.50;47.33;99065.23;1725512;83;21056;-82
2022/07/26 09:51:10;;;;;;;1.72;1.20;;;;;;;26.51;45.11;99066.91;1725362;83;22212;-84
2022/07/26 09:53:45;;;;;;;1.20;1.10;;;;;;;26.48;44.46;99065.41;1725486;82;21061;-85
2022/07/26 09:56:13;;;;;;;;;;;;;;;26.43;45.15;99068.28;1727867;82;21527;-82
2022/07/26 09:58:40;;;;;;;2.02;1.20;;;;;;;26.46;46.00;99062.52;1725171;83;20521;-83
2022/07/26 10:01:07;;;;;;;1.30;1.20;;;;;;;26.55;47.28;99060.19;1725614;83;21065;-79
2022/07/26 10:03:34;;;;;;;1.72;1.40;;;;;;;26.65;45.82;99066.30;1725191;83;21651;-81
2022/07/26 10:06:02;;;;;;;1.75;1.45;;;;;;;26.77;45.94;99064.63;1726024;83;21093;-82
2022/07/26 10:08:29;;;;;;;3.83;1.82;;;;;;;26.84;45.64;99070.51;1722796;83;21054;-80
2022/07/26 10:11:07;;;;;;;4.08;1.52;;;;;;;26.92;44.69;99072.38;1715086;83;21606;-80
2022/07/26 10:13:34;;;;;;;2.90;1.57;;;;;;;26.97;44.42;99067.31;1715190;82;22452;-81
2022/07/26 10:16:03;;;;;;;10.15;1.47;;;;;;;27.03;44.68;99068.47;1715580;82;21042;-82
2022/07/26 10:18:41;;;;;;;1.12;1.10;;;;;;;27.13;45.64;99066.95;1715070;83;21690;-80
2022/07/26 10:21:29;;;;;;;3.50;1.32;;;;;;;27.26;44.43;99048.36;1716272;82;23172;-84
2022/07/26 10:24:00;;;;;;;4.22;1.57;;;;;;;27.36;44.72;99055.80;1714943;83;21124;-80
2022/07/26 10:26:35;;;;;;;1.65;1.55;;;;;;;27.50;44.05;99046.64;1715211;83;21096;-81
2022/07/26 10:29:24;;;;;;;4.30;2.00;;;;;;;27.61;44.42;99048.46;1715126;83;22324;-81
2022/07/26 10:32:12;;;;;;;1.55;1.32;;;;;;;27.64;43.37;99041.88;1715175;83;21085;-81
2022/07/26 10:34:39;;;;;;;1.37;1.27;;;;;;;27.54;41.92;99049.35;1715049;83;21010;-81
2022/07/26 10:37:10;;;;;;;4.55;1.35;;;;;;;27.30;41.79;99053.77;1715428;82;21010;-81
2022/07/26 10:39:37;;;;;;;1.90;1.37;;;;;;;27.25;41.84;99048.02;1715586;82;21839;-82
2022/07/26 10:42:08;;;;;;;1.98;1.20;;;;;;;27.28;42.63;99050.38;1715021;83;22055;-79
2022/07/26 10:44:48;;;;;;;1.15;1.02;;;;;;;27.33;42.70;99053.44;1715151;83;21038;-80
2022/07/26 10:47:14;;;;;;;1.98;1.30;;;;;;;27.34;43.31;99056.48;1714422;83;21127;-81
2022/07/26 10:49:57;;;;;;;1.40;1.30;;;;;;;27.40;42.95;99049.05;1715242;82;21050;-82
2022/07/26 10:52:28;;;;;;;4.62;1.20;;;;;;;27.49;41.80;99049.00;1715064;82;21203;-84
2022/07/26 10:55:03;;;;;;;2.05;1.20;;;;;;;27.50;42.30;99045.30;1715275;83;21155;-83
2022/07/26 10:57:36;;;;;;;3.60;1.25;;;;;;;27.52;42.48;99048.66;1715091;82;26369;-82
2022/07/26 11:00:11;;;;;;;1.30;1.10;;;;;;;27.48;41.94;99056.27;1714475;83;21045;-83
2022/07/26 11:02:39;;;;;;;1.40;1.10;;;;;;;27.40;42.29;99055.80;1715133;83;21049;-84
2022/07/26 11:05:13;;;;;;;1.05;0.98;;;;;;;27.42;41.91;99051.06;1715037;82;21062;-83
2022/07/26 11:07:54;;;;;;;2.00;1.50;;;;;;;27.44;41.27;99044.14;1714712;82;21145;-84
2022/07/26 11:10:33;;;;;;;2.52;1.25;;;;;;;27.55;41.26;99037.51;1701995;82;21485;-85
2022/07/26 11:13:12;;;;;;;1.95;1.57;;;;;;;27.73;41.84;99037.28;1700459;83;21022;-83
2022/07/26 11:15:44;;;;;;;1.95;1.00;;;;;;;27.92;41.61;99036.00;1700364;84;21078;-83
2022/07/26 11:18:25;;;;;;;3.85;1.37;;;;;;;28.09;42.39;99043.55;1699973;84;21140;-80
2022/07/26 11:20:55;;;;;;;2.52;1.10;;;;;;;28.09;40.36;99043.05;1706695;82;21178;-81
2022/07/26 11:23:28;;;;;;;1.47;1.15;;;;;;;28.03;40.40;99046.45;1703049;83;21135;-79
2022/07/26 11:26:17;;;;;;;2.00;1.10;;;;;;;28.02;39.94;99046.63;1702652;83;21156;-80
2022/07/26 11:28:54;;;;;;;2.72;1.20;;;;;;;28.01;39.26;99037.69;1699353;84;21067;-81
2022/07/26 11:31:27;;;;;;;1.02;0.93;;;;;;;28.06;39.67;99029.88;1698742;84;21105;-80
2022/07/26 11:33:54;;;;;;;1.55;1.05;;;;;;;28.13;40.34;99037.61;1698513;84;21137;-80
2022/07/26 11:36:34;;;;;;;1.98;0.95;;;;;;;28.22;39.93;99038.39;1698447;84;21086;-80
2022/07/26 11:39:02;;;;;;;1.52;1.32;;;;;;;28.30;38.93;99030.75;1698507;84;21089;-79
2022/07/26 11:41:30;;;;;;;1.65;1.30;;;;;;;28.39;39.36;99036.42;1698745;84;20983;-81
2022/07/26 11:43:57;;;;;;;3.90;1.30;;;;;;;28.49;39.15;99034.31;1699127;84;21655;-81